Report METAR

 

KSJC - San Jose, California, USA
Distance from station: NE 14km
Dati ricevuti: 27/02/2021 00:53
Few Clouds
Few Clouds
 Vento da NNO
Vento: NNO 11 km/h
Temperatura: 9°C
Temperatura Vento: 7°C
P.to Rugiada: 4°C
Umidità: 71%
Barometro: 1020.3 hPa
Nuvole: Few Clouds
Visibility: 16 km
Cloud details: Few Clouds 792 m
2021/02/27 08:53 KSJC 270853Z AUTO 33006KT 10SM FEW026 09/04 A3013 RMK AO2 SLP204 T00890039 53002
KNUQ - Moffett Nas/Mtn, California, USA
Distance from station: N 14km
Dati ricevuti: 27/02/2021 01:30
Sereno
Sereno
 Vento da SO
Vento: SO 7 km/h
Temperatura: 7°C
Temperatura Vento: 6°C
P.to Rugiada: 3°C
Umidità: 76%
Barometro: 1020.7 hPa
Nuvole: Sereno
Visibility: 16 km
2021/02/27 09:30 KNUQ 270930Z AUTO 23004KT 10SM CLR 07/03 A3014 RMK AO2
 
KPAO - Palo Alto, California, USA
Distance from station: NNO 23km
Dati ricevuti: 26/02/2021 20:47
DATI Obsoleti
Sereno
Sereno
 Vento da O
Vento: O 22 km/h
Temperatura: 9°C
Temperatura Vento: 6°C
P.to Rugiada: 4°C
Umidità: 71%
Barometro: 1019.6 hPa
Nuvole: Sereno
Visibility: 16 km
2021/02/27 04:47 KPAO 270447Z 28012KT 10SM SKC 09/04 A3011 RMK LAST
KRHV - San Jose/Reid, California, USA
Distance from station: ENE 19km
Dati ricevuti: 26/02/2021 21:47
DATI Obsoleti
Parz. nuvoloso
Parz. nuvoloso
 Vento da NNO
Vento: NNO 13 km/h
Temperatura: 10°C
Temperatura Vento: 8°C
P.to Rugiada: 5°C
Umidità: 71%
Barometro: 1020.3 hPa
Nuvole: Parz. nuvoloso
Visibility: 16 km
Cloud details: Parz. nuvoloso 305 m
2021/02/27 05:47 KRHV 270547Z 33007KT 10SM SCT010 10/05 A3013 RMK LAST
 
KOAK - Oakland, California, USA
Distance from station: NNO 50km
Dati ricevuti: 27/02/2021 00:53
Few Clouds
Few Clouds
 Vento da E
Vento: E 6 km/h
Temperatura: 9°C
P.to Rugiada: 4°C
Umidità: 71%
Barometro: 1021 hPa
Nuvole: Few Clouds
Visibility: 16 km
Cloud details: Few Clouds 6096 m
2021/02/27 08:53 KOAK 270853Z 09003KT 10SM FEW200 09/04 A3015 RMK AO2 SLP207 T00940039 53004
KSQL - San Carlos Airpo, California, USA
Distance from station: NO 34km
Dati ricevuti: 27/02/2021 01:35
Sereno
Sereno
 Vento da ONO
Vento: ONO 9 km/h
Temperatura: 8°C
Temperatura Vento: 6°C
P.to Rugiada: 4°C
Umidità: 76%
Barometro: 1021.3 hPa
Nuvole: Sereno
Visibility: 16 km
2021/02/27 09:35 KSQL 270935Z AUTO 29005KT 10SM CLR 08/04 A3016 RMK AO2
 
KSFO - San Francisco, California, USA
Distance from station: NO 49km
Dati ricevuti: 27/02/2021 00:56
Sereno
Sereno
 Vento da O
Vento: O 15 km/h
Temperatura: 9°C
Temperatura Vento: 7°C
P.to Rugiada: 4°C
Umidità: 71%
Barometro: 1020.3 hPa
Nuvole: Sereno
Visibility: 16 km
2021/02/27 08:56 KSFO 270856Z 27008KT 10SM CLR 09/04 A3013 RMK AO2 SLP203 T00940039 53003
KE16 - San Martin, California, USA
Distance from station: ESE 43km
Dati ricevuti: 27/02/2021 01:35
Coperto
Coperto
 Vento da NNO
Vento: NNO 11 km/h
Temperatura: 7°C
Temperatura Vento: 5°C
P.to Rugiada: 4°C
Umidità: 81%
Barometro: 1021 hPa
Nuvole: Coperto
Visibility: 16 km
Cloud details: Coperto 518 m
2021/02/27 09:35 KE16 270935Z AUTO 33006KT 10SM OVC017 07/04 A3015 RMK AO2
 
KWVI - Watsonville, California, USA
Distance from station: SSE 44km
Dati ricevuti: 27/02/2021 00:53
Sereno
Sereno
 Vento da NNE
Vento: NNE 6 km/h
Temperatura: 6°C
P.to Rugiada: 4°C
Umidità: 87%
Barometro: 1020.3 hPa
Nuvole: Sereno
Visibility: 16 km
2021/02/27 08:53 KWVI 270853Z AUTO 03003KT 10SM CLR 06/04 A3013 RMK AO2 SLP201 T00610044 53001
KHAF - Half Moon Bay, California, USA
Distance from station: ONO 50km
Dati ricevuti: 27/02/2021 01:35
Haze, Nuvoloso
Haze, Nuvoloso
 Vento da NNO
Vento: NNO 19 km/h, Raffica: 41 km/h
Temperatura: 8°C
Temperatura Vento: 4°C
P.to Rugiada: 4°C
Umidità: 76%
Barometro: 1021.3 hPa
Summary: Haze
Nuvole: Molto nuvoloso
Visibility: 8 km
Cloud details: Parz. nuvoloso 488 m
Molto nuvoloso 732 m
2021/02/27 09:35 KHAF 270935Z AUTO 34010G22KT 5SM HZ SCT016 BKN024 08/04 A3016 RMK AO2
 
KHWD - Hayward, California, USA
Distance from station: N 44km
Dati ricevuti: 27/02/2021 00:54
Sereno
Sereno
 Vento da calmo
Vento: Calma
Temperatura: 7°C
P.to Rugiada: 3°C
Umidità: 76%
Barometro: 1020.3 hPa
Nuvole: Sereno
Visibility: 16 km
2021/02/27 08:54 KHWD 270854Z 00000KT 10SM CLR 07/03 A3013 RMK AO2 SLP212 T00720033 53003
KLVK - Livermore, California, USA
Distance from station: NNE 51km
Dati ricevuti: 27/02/2021 00:53
Sereno
Sereno
 Vento da calmo
Vento: Calma
Temperatura: 6°C
P.to Rugiada: 4°C
Umidità: 87%
Barometro: 1020 hPa
Nuvole: Sereno
Visibility: 13 km
2021/02/27 08:53 KLVK 270853Z AUTO 00000KT 8SM CLR 06/04 A3012 RMK AO2 SLP198 T00610044 53007